M I D A S
Marine Information and Data Acquisition System
Tripno 1017 of the Zeeleeuw from 2005-10-12 06:25:38 to 2005-10-12 13:09:30
Back to CruiseResearch ActivitiesStationsMapUnderway DataData graphs

EquipmentUnitsComment
TimeDGPSUTC
LatitudeDGPSDM.mWGS84
LongitudeDGPSDM.mWGS84
HeadingGyrodeg 
SOGDGPSknotsSpeed over ground
COGDGPSdegCourse over ground
DepthEcho soundermeters200 kHz
Missing or incorrect values are displayed as -999
Navigation data collected by the RV Zeeleeuw from 2005-10-12 06:26:49 to 2005-10-12 13:18:30
                                                                                    Next 1000 lines
Time Latitude Longitude Heading SOG COG Depth
2005-10-12 06:27:00 51°13.601 2°56.097 109.5 0.6 283 8.4
2005-10-12 06:27:04 51°13.601 2°56.096 108.9 1 286 8.5
2005-10-12 06:27:09 51°13.602 2°56.093 108.8 1.3 285 8.6
2005-10-12 06:27:14 51°13.602 2°56.09 108.7 1.5 285 8.8
2005-10-12 06:27:20 51°13.603 2°56.085 109 1.9 287 9
2005-10-12 06:27:24 51°13.604 2°56.081 109.5 2 287 -999
2005-10-12 06:27:30 51°13.605 2°56.075 110.3 2.5 290 -999
2005-10-12 06:27:35 51°13.607 2°56.069 110.8 2.7 289 -999
2005-10-12 06:27:40 51°13.608 2°56.063 111.1 2.9 290 -999
2005-10-12 06:27:45 51°13.609 2°56.056 111.3 3.1 289 -999
2005-10-12 06:27:50 51°13.611 2°56.05 111.5 3.2 290 -999
2005-10-12 06:27:55 51°13.613 2°56.043 111.8 3.3 289 -999
2005-10-12 06:28:00 51°13.614 2°56.035 112.2 3.5 290 -999
2005-10-12 06:28:05 51°13.616 2°56.028 112.5 3.5 289 -999
2005-10-12 06:28:10 51°13.618 2°56.02 113.2 3.6 291 -999
2005-10-12 06:28:15 51°13.62 2°56.013 113.9 3.7 291 -999
2005-10-12 06:28:20 51°13.622 2°56.005 114.6 3.8 292 -999
2005-10-12 06:28:25 51°13.624 2°55.997 115.4 3.9 292 -999
2005-10-12 06:28:30 51°13.626 2°55.989 116.4 3.9 293 -999
2005-10-12 06:28:34 51°13.628 2°55.982 117.5 4.1 293 -999
2005-10-12 06:28:40 51°13.631 2°55.972 118.3 4.2 295 -999
2005-10-12 06:28:45 51°13.633 2°55.964 119 4.3 295 -999
2005-10-12 06:28:50 51°13.636 2°55.955 119.6 4.4 297 -999
2005-10-12 06:28:55 51°13.639 2°55.946 120.4 4.4 297 -999
2005-10-12 06:29:00 51°13.642 2°55.937 120.6 4.5 298 -999
2005-10-12 06:29:05 51°13.644 2°55.928 120.6 4.5 298 -999
2005-10-12 06:29:10 51°13.647 2°55.919 120.5 4.5 298 -999
2005-10-12 06:29:14 51°13.65 2°55.912 120.4 4.5 298 -999
2005-10-12 06:29:20 51°13.653 2°55.902 120.1 4.5 298 -999
2005-10-12 06:29:25 51°13.656 2°55.893 119.7 4.5 298 -999
2005-10-12 06:29:30 51°13.659 2°55.884 119 4.5 298 -999
2005-10-12 06:29:34 51°13.662 2°55.877 118.2 4.5 298 -999
2005-10-12 06:29:40 51°13.665 2°55.866 117.1 4.6 297 -999
2005-10-12 06:29:45 51°13.668 2°55.857 115.9 4.6 296 -999
2005-10-12 06:29:50 51°13.67 2°55.848 114.8 4.6 295 -999
2005-10-12 06:29:55 51°13.673 2°55.839 113.3 4.6 294 -999
2005-10-12 06:30:00 51°13.675 2°55.829 111.2 4.5 293 -999
2005-10-12 06:30:05 51°13.677 2°55.821 109.5 4.3 291 -999
2005-10-12 06:30:10 51°13.679 2°55.812 107.4 4.2 289 -999
2005-10-12 06:30:15 51°13.68 2°55.803 105.9 4 288 -999
2005-10-12 06:30:20 51°13.682 2°55.796 103.7 3.8 287 -999
2005-10-12 06:30:25 51°13.683 2°55.788 102.5 3.6 285 -999
2005-10-12 06:30:30 51°13.684 2°55.78 101 3.5 284 -999
2005-10-12 06:30:34 51°13.685 2°55.775 99.6 3.3 285 -999
2005-10-12 06:30:39 51°13.686 2°55.769 97.9 2.9 282 13.8
2005-10-12 06:30:44 51°13.687 2°55.763 96.1 2.7 282 14.3
2005-10-12 06:30:49 51°13.687 2°55.758 93.5 2.3 281 14.3
2005-10-12 06:30:54 51°13.688 2°55.754 90.9 2.1 279 14.5
2005-10-12 06:30:59 51°13.688 2°55.75 88.5 1.7 280 14.7
2005-10-12 06:31:04 51°13.689 2°55.747 85.5 1.4 279 14.7
2005-10-12 06:31:09 51°13.689 2°55.745 82.7 1.1 284 15.1
2005-10-12 06:31:14 51°13.689 2°55.743 78.3 0.9 287 15.3
2005-10-12 06:31:20 51°13.689 2°55.741 75.2 0.6 300 15.4
2005-10-12 06:31:24 51°13.69 2°55.74 71.3 0.6 307 15.4
2005-10-12 06:31:29 51°13.69 2°55.74 67.3 0.5 346 15.4
2005-10-12 06:31:34 51°13.691 2°55.741 62.8 0.6 6 15.4
2005-10-12 06:31:40 51°13.692 2°55.742 58.3 0.6 6 15.4
2005-10-12 06:31:44 51°13.694 2°55.742 52.3 1 21 15.4
2005-10-12 06:31:49 51°13.695 2°55.743 48.1 1.3 21 15.4
2005-10-12 06:31:54 51°13.697 2°55.744 41.4 1.4 21 15.4
2005-10-12 06:31:59 51°13.699 2°55.746 37 1.6 21 15.3
2005-10-12 06:32:04 51°13.702 2°55.747 31.5 1.8 15 15.4
2005-10-12 06:32:09 51°13.705 2°55.747 26 2.1 10 15.7
2005-10-12 06:32:14 51°13.708 2°55.748 19.4 2.3 8 15.6
2005-10-12 06:32:19 51°13.712 2°55.748 14.8 2.6 1 15.3
2005-10-12 06:32:24 51°13.716 2°55.748 8.7 2.8 356 15.2
2005-10-12 06:32:30 51°13.721 2°55.746 2.7 3.2 350 14.8
2005-10-12 06:32:34 51°13.725 2°55.744 355.5 3.5 343 13.6
2005-10-12 06:32:39 51°13.73 2°55.741 345.7 4 336 12.7
2005-10-12 06:32:44 51°13.735 2°55.735 338.9 4.4 330 11.9
2005-10-12 06:32:49 51°13.741 2°55.729 330.9 5.1 324 11.2
2005-10-12 06:32:54 51°13.747 2°55.721 328.2 5.5 324 11.6
2005-10-12 06:32:59 51°13.754 2°55.713 327.8 6.2 324 11.4
2005-10-12 06:33:04 51°13.761 2°55.704 327.8 6.4 325 10.9
2005-10-12 06:33:09 51°13.77 2°55.695 327.6 7.1 323 10.9
2005-10-12 06:33:14 51°13.778 2°55.685 327.6 7.4 324 10.9
2005-10-12 06:33:20 51°13.789 2°55.674 328.7 7.5 324 11.2
2005-10-12 06:33:24 51°13.797 2°55.667 330.2 8 328 11.5
2005-10-12 06:33:29 51°13.807 2°55.657 332.4 8.3 330 11.9
2005-10-12 06:33:34 51°13.817 2°55.648 334.5 8.5 331 12.3
2005-10-12 06:33:40 51°13.83 2°55.638 336.1 8.7 333 12.2
2005-10-12 06:33:44 51°13.839 2°55.631 336.6 8.9 333 12.4
2005-10-12 06:33:49 51°13.851 2°55.622 337.5 9.1 335 12.3
2005-10-12 06:33:54 51°13.852 2°55.62 338.8 3.3 334 11.9
2005-10-12 06:34:00 51°13.876 2°55.602 338.9 1.8 336 11.9
2005-10-12 06:34:04 51°13.886 2°55.595 338.9 6.3 334 11.8
2005-10-12 06:34:09 51°13.899 2°55.587 339.6 9.9 336 11.7
2005-10-12 06:34:14 51°13.911 2°55.577 339.6 9.9 335 11.7
2005-10-12 06:34:20 51°13.926 2°55.565 338.9 10.1 335 12
2005-10-12 06:34:24 51°13.937 2°55.558 338.9 10.2 334 11.6
2005-10-12 06:34:29 51°13.949 2°55.548 339 10.3 335 11.9
2005-10-12 06:34:34 51°13.962 2°55.538 338.9 10.4 335 11.8
2005-10-12 06:34:39 51°13.976 2°55.529 339.2 10.4 336 12
2005-10-12 06:34:44 51°13.989 2°55.519 340.2 10.5 337 12.4
2005-10-12 06:34:49 51°14.002 2°55.509 339.6 10.6 334 12.6
2005-10-12 06:34:54 51°14.016 2°55.5 339.5 10.6 336 12.5
2005-10-12 06:34:59 51°14.03 2°55.49 340.6 10.7 337 12.4
2005-10-12 06:35:04 51°14.043 2°55.481 340.8 10.7 336 12.2
2005-10-12 06:35:10 51°14.059 2°55.47 341.1 10.7 337 11.9
2005-10-12 06:35:14 51°14.07 2°55.462 341.6 10.7 337 12.4
2005-10-12 06:35:19 51°14.084 2°55.453 341.6 10.8 337 12.4
2005-10-12 06:35:24 51°14.098 2°55.443 341.1 10.9 337 12.4
2005-10-12 06:35:29 51°14.112 2°55.433 340.5 11 335 12.4
2005-10-12 06:35:34 51°14.126 2°55.422 340 11 335 12.5
2005-10-12 06:35:39 51°14.139 2°55.41 338.4 11 332 12.5
2005-10-12 06:35:44 51°14.153 2°55.399 337.4 11.1 332 12.5
2005-10-12 06:35:49 51°14.166 2°55.386 336 11.1 329 12.6
2005-10-12 06:35:54 51°14.179 2°55.373 333.9 11.1 328 12.6
2005-10-12 06:36:00 51°14.194 2°55.356 331.8 11.2 325 12.6
2005-10-12 06:36:04 51°14.205 2°55.344 329.6 11.3 324 12.6
2005-10-12 06:36:09 51°14.217 2°55.328 328 11.4 322 12.6
2005-10-12 06:36:14 51°14.229 2°55.312 326.6 11.5 321 12.5
2005-10-12 06:36:19 51°14.241 2°55.295 324.1 11.5 318 12.5
2005-10-12 06:36:24 51°14.253 2°55.277 322.4 11.6 316 12.6
2005-10-12 06:36:29 51°14.264 2°55.259 321.7 11.7 316 12.6
2005-10-12 06:36:34 51°14.275 2°55.24 318.9 11.7 312 12.5
2005-10-12 06:36:39 51°14.286 2°55.221 317.5 11.8 313 12.7
2005-10-12 06:36:44 51°14.297 2°55.201 316.4 11.9 312 12.8
2005-10-12 06:36:49 51°14.308 2°55.181 315.1 12.1 310 12.7
2005-10-12 06:36:54 51°14.319 2°55.16 314.5 12.1 310 12.9
2005-10-12 06:36:59 51°14.33 2°55.139 314.3 12.3 310 12.8
2005-10-12 06:37:04 51°14.341 2°55.119 314.7 12.3 311 12.8
2005-10-12 06:37:09 51°14.352 2°55.098 314.9 12.4 311 12.7
2005-10-12 06:37:14 51°14.364 2°55.078 315 12.4 312 12.8
2005-10-12 06:37:19 51°14.377 2°55.059 317.8 12.6 319 12.9
2005-10-12 06:37:24 51°14.391 2°55.043 322.6 12.6 321 12.8
2005-10-12 06:37:30 51°14.41 2°55.028 329.1 12.7 332 12.6
2005-10-12 06:37:34 51°14.424 2°55.018 333.1 12.8 334 12.2
2005-10-12 06:37:39 51°14.44 2°55.006 335 12.9 336 12.2
2005-10-12 06:37:44 51°14.457 2°54.995 336 13 336 12.3
2005-10-12 06:37:49 51°14.473 2°54.983 336.3 13.1 336 12
2005-10-12 06:37:54 51°14.49 2°54.971 336.3 13.1 335 11.9
2005-10-12 06:38:00 51°14.509 2°54.956 335.7 13.1 335 11.8
2005-10-12 06:38:04 51°14.522 2°54.945 334.5 13.1 334 11.7
2005-10-12 06:38:09 51°14.538 2°54.932 333.5 13.1 332 11.7
2005-10-12 06:38:14 51°14.554 2°54.918 332.6 13.1 332 11.6
2005-10-12 06:38:19 51°14.57 2°54.905 332.3 13.1 332 11.6
2005-10-12 06:38:24 51°14.586 2°54.891 332.2 13.1 332 11.5
2005-10-12 06:38:29 51°14.602 2°54.877 332.3 13.2 332 11.5
2005-10-12 06:38:34 51°14.618 2°54.863 332.3 13.2 332 11.5
2005-10-12 06:38:39 51°14.634 2°54.849 332.2 13.1 331 11.5
2005-10-12 06:38:44 51°14.65 2°54.836 332.1 13.1 332 11.5
2005-10-12 06:38:49 51°14.666 2°54.822 331.9 13.2 331 11.5
2005-10-12 06:38:54 51°14.682 2°54.808 331.9 13.2 332 11.5
2005-10-12 06:38:59 51°14.699 2°54.794 332.3 13.2 332 11.4
2005-10-12 06:39:04 51°14.715 2°54.781 332.8 13.2 333 11.4
2005-10-12 06:39:09 51°14.731 2°54.768 332.9 13.2 333 11.4
2005-10-12 06:39:14 51°14.748 2°54.754 333.1 13.2 333 11.4
2005-10-12 06:39:19 51°14.764 2°54.741 333.1 13.2 333 11.3
2005-10-12 06:39:24 51°14.78 2°54.727 332.9 13.2 332 11.3
2005-10-12 06:39:29 51°14.796 2°54.713 332 13.2 331 11.3
2005-10-12 06:39:34 51°14.812 2°54.699 331.3 13.2 331 11.2
2005-10-12 06:39:39 51°14.828 2°54.684 330.5 13.2 330 11.2
2005-10-12 06:39:44 51°14.843 2°54.669 330 13.2 330 11.1
2005-10-12 06:39:49 51°14.859 2°54.654 329.9 13.2 330 11.1
2005-10-12 06:39:54 51°14.875 2°54.64 329.9 13.2 330 11
2005-10-12 06:39:59 51°14.891 2°54.626 330.2 13.2 330 11
2005-10-12 06:40:04 51°14.907 2°54.611 330.4 13.2 330 10.9
2005-10-12 06:40:09 51°14.923 2°54.597 330.5 13.2 330 10.9
2005-10-12 06:40:14 51°14.939 2°54.582 330.6 13.2 330 10.8
2005-10-12 06:40:19 51°14.955 2°54.568 330.7 13.2 331 10.8
2005-10-12 06:40:24 51°14.971 2°54.554 330.7 13.2 331 10.9
2005-10-12 06:40:29 51°14.987 2°54.539 330.7 13.2 331 10.8
2005-10-12 06:40:34 51°15.003 2°54.525 330.7 13.2 331 10.7
2005-10-12 06:40:39 51°15.019 2°54.51 330.8 13.2 330 10.6
2005-10-12 06:40:44 51°15.035 2°54.496 330.7 13.2 330 10.5
2005-10-12 06:40:49 51°15.05 2°54.481 330.2 13.2 330 10.5
2005-10-12 06:40:54 51°15.066 2°54.467 329.9 13.2 329 10.4
2005-10-12 06:41:00 51°15.085 2°54.449 329.8 13.2 329 10.4
2005-10-12 06:41:04 51°15.097 2°54.437 329.8 13.2 329 10.4
2005-10-12 06:41:09 51°15.113 2°54.422 329.8 13.2 330 10.4
2005-10-12 06:41:14 51°15.129 2°54.407 330.1 13.2 329 10.4
2005-10-12 06:41:19 51°15.145 2°54.393 330.2 13.2 330 10.5
2005-10-12 06:41:24 51°15.161 2°54.378 330.6 13.2 330 10.5
2005-10-12 06:41:29 51°15.177 2°54.364 331.2 13.3 331 10.6
2005-10-12 06:41:34 51°15.193 2°54.35 331.6 13.3 331 10.6
2005-10-12 06:41:39 51°15.209 2°54.336 331.6 13.2 331 10.7
2005-10-12 06:41:44 51°15.225 2°54.322 331.6 13.2 331 10.8
2005-10-12 06:41:50 51°15.244 2°54.305 331.6 13.2 331 10.9
2005-10-12 06:41:54 51°15.257 2°54.293 331.3 13.2 331 10.9
2005-10-12 06:41:59 51°15.273 2°54.279 331.1 13.2 330 10.9
2005-10-12 06:42:04 51°15.289 2°54.264 330.9 13.2 330 10.9
2005-10-12 06:42:09 51°15.305 2°54.25 330.9 13.2 330 11
2005-10-12 06:42:14 51°15.321 2°54.235 330.8 13.3 330 11.1
2005-10-12 06:42:20 51°15.34 2°54.218 330.8 13.3 330 11.2
2005-10-12 06:42:24 51°15.353 2°54.206 330.8 13.3 330 11.2
2005-10-12 06:42:29 51°15.369 2°54.192 330.9 13.3 331 11.3
2005-10-12 06:42:34 51°15.385 2°54.178 330.9 13.2 331 11.4
2005-10-12 06:42:39 51°15.401 2°54.163 331 13.3 331 11.6
2005-10-12 06:42:44 51°15.417 2°54.149 331 13.3 331 11.6
2005-10-12 06:42:49 51°15.433 2°54.134 331 13.3 330 11.6
2005-10-12 06:42:54 51°15.449 2°54.12 330.9 13.3 330 11.7
2005-10-12 06:43:00 51°15.468 2°54.102 330.9 13.3 330 11.7
2005-10-12 06:43:04 51°15.481 2°54.091 330.8 13.3 330 11.8
2005-10-12 06:43:09 51°15.497 2°54.076 330.8 13.3 330 11.9
2005-10-12 06:43:14 51°15.513 2°54.062 330.8 13.3 330 11.9
2005-10-12 06:43:20 51°15.532 2°54.044 330.8 13.3 330 12
2005-10-12 06:43:24 51°15.545 2°54.033 330.9 13.3 331 12.1
2005-10-12 06:43:29 51°15.561 2°54.018 330.9 13.3 330 12.2
2005-10-12 06:43:34 51°15.577 2°54.004 330.9 13.3 330 12.3
2005-10-12 06:43:39 51°15.593 2°53.989 330.9 13.3 330 12.4
2005-10-12 06:43:44 51°15.609 2°53.975 330.9 13.3 330 12.4
2005-10-12 06:43:49 51°15.625 2°53.96 330.9 13.3 330 12.5
2005-10-12 06:43:54 51°15.641 2°53.946 330.9 13.3 331 12.6
2005-10-12 06:43:59 51°15.657 2°53.931 330.9 13.3 331 12.6
2005-10-12 06:44:04 51°15.673 2°53.917 330.9 13.3 330 12.7
2005-10-12 06:44:10 51°15.692 2°53.899 330.8 13.2 330 12.7
2005-10-12 06:44:14 51°15.705 2°53.888 330.6 13.2 330 12.8
2005-10-12 06:44:19 51°15.721 2°53.873 330.4 13.2 330 12.8
2005-10-12 06:44:24 51°15.736 2°53.858 330.4 13.2 330 12.8
2005-10-12 06:44:29 51°15.752 2°53.844 330.9 13.2 330 12.9
2005-10-12 06:44:34 51°15.768 2°53.829 331.1 13.2 331 12.9
2005-10-12 06:44:39 51°15.784 2°53.815 331.2 13.3 330 12.9
2005-10-12 06:44:44 51°15.8 2°53.801 331.2 13.2 330 13
2005-10-12 06:44:49 51°15.816 2°53.786 331 13.2 330 13
2005-10-12 06:44:54 51°15.832 2°53.772 330.9 13.2 331 13.1
2005-10-12 06:44:59 51°15.848 2°53.757 331.3 13.2 331 13.1
2005-10-12 06:45:04 51°15.864 2°53.743 331.3 13.3 331 13.1
2005-10-12 06:45:09 51°15.88 2°53.729 331.4 13.2 331 13.1
2005-10-12 06:45:14 51°15.896 2°53.714 331.4 13.3 331 13.1
2005-10-12 06:45:19 51°15.912 2°53.7 331.6 13.3 331 13.2
2005-10-12 06:45:24 51°15.928 2°53.686 331.6 13.3 331 13.2
2005-10-12 06:45:30 51°15.948 2°53.669 331.6 13.3 331 13.3
2005-10-12 06:45:34 51°15.96 2°53.657 331.6 13.3 331 13.3
2005-10-12 06:45:40 51°15.98 2°53.64 331.5 13.3 331 13.4
2005-10-12 06:45:44 51°15.993 2°53.629 331.4 13.3 331 13.4
2005-10-12 06:45:50 51°16.012 2°53.611 331.4 13.3 331 13.4
2005-10-12 06:45:54 51°16.025 2°53.6 331.3 13.2 331 13.5
2005-10-12 06:45:59 51°16.041 2°53.585 331.3 13.3 331 13.5
2005-10-12 06:46:04 51°16.056 2°53.571 331.3 13.3 331 13.6
2005-10-12 06:46:09 51°16.073 2°53.557 331.2 13.3 331 13.6
2005-10-12 06:46:14 51°16.089 2°53.542 331.2 13.3 330 13.6
2005-10-12 06:46:19 51°16.105 2°53.528 331 13.3 330 13.7
2005-10-12 06:46:24 51°16.121 2°53.513 330.9 13.3 330 13.8
2005-10-12 06:46:29 51°16.137 2°53.499 330.9 13.3 331 13.8
2005-10-12 06:46:34 51°16.153 2°53.485 331.3 13.3 331 13.8
2005-10-12 06:46:39 51°16.169 2°53.47 331.5 13.3 331 13.8
2005-10-12 06:46:44 51°16.185 2°53.456 331.6 13.3 331 13.8
2005-10-12 06:46:49 51°16.201 2°53.442 331.6 13.2 331 13.8
2005-10-12 06:46:54 51°16.217 2°53.428 331.6 13.2 331 13.9
2005-10-12 06:47:00 51°16.236 2°53.411 331.6 13.2 331 13.9
2005-10-12 06:47:04 51°16.249 2°53.4 331.6 13.2 331 13.9
2005-10-12 06:47:09 51°16.265 2°53.386 331.6 13.2 331 13.9
2005-10-12 06:47:14 51°16.281 2°53.372 331.6 13.2 331 13.9
2005-10-12 06:47:19 51°16.297 2°53.357 331.6 13.2 331 13.9
2005-10-12 06:47:24 51°16.313 2°53.343 331.4 13.2 331 13.9
2005-10-12 06:47:29 51°16.329 2°53.329 331.4 13.1 331 14.1
2005-10-12 06:47:34 51°16.345 2°53.315 331.4 13.1 331 14
2005-10-12 06:47:40 51°16.364 2°53.298 331.3 13.1 331 14
2005-10-12 06:47:44 51°16.376 2°53.286 331.3 13.1 331 14
2005-10-12 06:47:49 51°16.392 2°53.272 331.3 13.1 331 14
2005-10-12 06:47:54 51°16.408 2°53.258 331.3 13.1 331 14
2005-10-12 06:47:59 51°16.424 2°53.244 331.3 13.1 331 14
2005-10-12 06:48:04 51°16.44 2°53.23 331.2 13.1 331 13.9
2005-10-12 06:48:09 51°16.456 2°53.215 331.2 13.1 331 14
2005-10-12 06:48:14 51°16.471 2°53.201 331.2 13.1 331 14
2005-10-12 06:48:19 51°16.488 2°53.187 331.4 13.1 331 13.9
2005-10-12 06:48:24 51°16.503 2°53.173 331.6 13.1 331 13.9
2005-10-12 06:48:30 51°16.523 2°53.156 331.6 13.1 331 13.8
2005-10-12 06:48:34 51°16.535 2°53.145 331.6 13.1 331 13.8
2005-10-12 06:48:39 51°16.551 2°53.131 331.4 13.1 331 13.8
2005-10-12 06:48:44 51°16.567 2°53.116 331.1 13.1 330 13.7
2005-10-12 06:48:50 51°16.586 2°53.099 331.2 13.1 331 13.6
2005-10-12 06:48:54 51°16.599 2°53.088 331.3 13.1 331 13.6
2005-10-12 06:49:00 51°16.618 2°53.071 331.6 13.1 331 13.5
2005-10-12 06:49:04 51°16.631 2°53.06 331.5 13.1 331 13.4
2005-10-12 06:49:09 51°16.646 2°53.045 331.2 13.2 330 13.5
2005-10-12 06:49:14 51°16.662 2°53.031 330.9 13.1 330 13.4
2005-10-12 06:49:20 51°16.681 2°53.013 330.8 13.1 330 13.3
2005-10-12 06:49:24 51°16.694 2°53.002 330.9 13.1 330 13.2
2005-10-12 06:49:29 51°16.71 2°52.988 331.3 13.1 331 13.1
2005-10-12 06:49:34 51°16.726 2°52.973 331.4 13.1 331 13
2005-10-12 06:49:39 51°16.742 2°52.959 331.6 13.2 331 12.8
2005-10-12 06:49:44 51°16.758 2°52.945 331.6 13.2 331 12.6
2005-10-12 06:49:49 51°16.773 2°52.931 331.7 13.1 331 12.4
2005-10-12 06:49:54 51°16.789 2°52.917 331.8 13.1 331 12.1
2005-10-12 06:49:59 51°16.805 2°52.903 331.6 13.1 330 11.5
2005-10-12 06:50:04 51°16.821 2°52.888 331.3 13.1 330 11.4
2005-10-12 06:50:10 51°16.84 2°52.871 330.9 13.1 329 11.3
2005-10-12 06:50:14 51°16.852 2°52.859 330.8 13.1 330 11.1
2005-10-12 06:50:19 51°16.868 2°52.844 330.7 13.1 330 11.2
2005-10-12 06:50:24 51°16.884 2°52.83 330.7 13.1 330 11.2
2005-10-12 06:50:29 51°16.899 2°52.815 330.9 13.2 330 11.3
2005-10-12 06:50:34 51°16.916 2°52.801 331.2 13.2 330 11.4
2005-10-12 06:50:39 51°16.931 2°52.786 331.3 13.3 330 11.4
2005-10-12 06:50:44 51°16.947 2°52.772 331.3 13.3 330 11.5
2005-10-12 06:50:49 51°16.963 2°52.757 331 13.3 330 11.7
2005-10-12 06:50:54 51°16.979 2°52.742 331 13.3 330 11.7
2005-10-12 06:50:59 51°16.995 2°52.727 331.1 13.3 330 11.7
2005-10-12 06:51:04 51°17.011 2°52.713 331.2 13.3 330 12
2005-10-12 06:51:10 51°17.031 2°52.695 331.4 13.3 330 12.1
2005-10-12 06:51:14 51°17.043 2°52.684 331.5 13.3 331 12.3
2005-10-12 06:51:19 51°17.06 2°52.669 331.6 13.3 330 12
2005-10-12 06:51:24 51°17.076 2°52.655 331.5 13.3 330 11.9
2005-10-12 06:51:29 51°17.091 2°52.64 331.4 13.3 330 11.8
2005-10-12 06:51:34 51°17.108 2°52.626 331.3 13.3 330 11.7
2005-10-12 06:51:40 51°17.127 2°52.608 331.4 13.3 330 11.5
2005-10-12 06:51:44 51°17.14 2°52.597 331.5 13.3 330 11.7
2005-10-12 06:51:49 51°17.156 2°52.582 331.6 13.3 331 11.7
2005-10-12 06:51:54 51°17.172 2°52.568 331.6 13.3 330 11.8
2005-10-12 06:51:59 51°17.188 2°52.553 331.6 13.3 331 11.8
2005-10-12 06:52:04 51°17.204 2°52.539 331.4 13.3 330 11.8
2005-10-12 06:52:09 51°17.22 2°52.524 331.1 13.3 330 12
2005-10-12 06:52:14 51°17.236 2°52.509 331 13.3 330 12.1
2005-10-12 06:52:19 51°17.252 2°52.494 331 13.3 330 12
2005-10-12 06:52:24 51°17.268 2°52.48 331 13.3 330 12
2005-10-12 06:52:29 51°17.284 2°52.465 330.9 13.3 330 12.1
2005-10-12 06:52:34 51°17.3 2°52.45 330.9 13.3 330 12.3
2005-10-12 06:52:39 51°17.316 2°52.436 330.9 13.4 330 12.5
2005-10-12 06:52:44 51°17.332 2°52.421 330.9 13.4 330 12.4
2005-10-12 06:52:49 51°17.348 2°52.406 330.9 13.4 330 12.3
2005-10-12 06:52:54 51°17.364 2°52.391 330.9 13.3 330 12.5
2005-10-12 06:52:59 51°17.38 2°52.376 330.8 13.3 330 12.4
2005-10-12 06:53:04 51°17.396 2°52.361 330.8 13.3 329 12.5
2005-10-12 06:53:09 51°17.412 2°52.346 330.6 13.3 330 12.5
2005-10-12 06:53:14 51°17.428 2°52.332 330.6 13.4 330 12.5
2005-10-12 06:53:19 51°17.444 2°52.317 331 13.4 330 12.5
2005-10-12 06:53:24 51°17.46 2°52.302 331.3 13.4 330 12.4
2005-10-12 06:53:30 51°17.48 2°52.285 331.4 13.4 330 12.4
2005-10-12 06:53:34 51°17.493 2°52.273 331.4 13.4 330 12.4
2005-10-12 06:53:40 51°17.512 2°52.256 331.4 13.4 330 12.5
2005-10-12 06:53:44 51°17.525 2°52.244 331.3 13.4 330 12.6
2005-10-12 06:53:49 51°17.541 2°52.229 331.2 13.4 330 12.5
2005-10-12 06:53:54 51°17.557 2°52.214 331.1 13.4 330 12.6
2005-10-12 06:54:00 51°17.576 2°52.196 331.1 13.4 330 12.3
2005-10-12 06:54:04 51°17.589 2°52.185 331.1 13.4 330 12.6
2005-10-12 06:54:09 51°17.605 2°52.169 331 13.4 330 12.5
2005-10-12 06:54:14 51°17.62 2°52.155 330.9 13.3 329 12.5
2005-10-12 06:54:19 51°17.637 2°52.14 331 13.3 330 12.5
2005-10-12 06:54:24 51°17.652 2°52.125 331 13.3 329 12.4
2005-10-12 06:54:29 51°17.668 2°52.11 331.1 13.4 330 12.5
2005-10-12 06:54:34 51°17.684 2°52.095 331.2 13.3 329 12.5
2005-10-12 06:54:39 51°17.7 2°52.08 331 13.3 329 12.3
2005-10-12 06:54:44 51°17.716 2°52.065 330.9 13.3 329 12.4
2005-10-12 06:54:49 51°17.732 2°52.05 330.9 13.4 330 12.2
2005-10-12 06:54:54 51°17.748 2°52.035 331.2 13.4 329 12.5
2005-10-12 06:54:59 51°17.764 2°52.02 331.2 13.4 329 12.5
2005-10-12 06:55:04 51°17.78 2°52.005 331.2 13.4 329 12.5
2005-10-12 06:55:09 51°17.796 2°51.99 331.1 13.4 330 12.4
2005-10-12 06:55:14 51°17.812 2°51.975 331.2 13.4 330 12.4
2005-10-12 06:55:19 51°17.828 2°51.96 331.3 13.4 329 12.3
2005-10-12 06:55:24 51°17.844 2°51.945 331.4 13.4 330 12.4
2005-10-12 06:55:29 51°17.86 2°51.93 331.4 13.4 330 12.4
2005-10-12 06:55:34 51°17.876 2°51.915 331.5 13.4 330 12.3
2005-10-12 06:55:40 51°17.895 2°51.897 331.6 13.4 330 12.3
2005-10-12 06:55:44 51°17.908 2°51.885 331.6 13.4 330 12.4
2005-10-12 06:55:49 51°17.924 2°51.87 331.7 13.4 330 12.5
2005-10-12 06:55:54 51°17.94 2°51.855 331.6 13.4 329 12.3
2005-10-12 06:56:00 51°17.958 2°51.837 331.3 13.4 329 12.5
2005-10-12 06:56:04 51°17.971 2°51.825 331 13.4 329 12.6
2005-10-12 06:56:09 51°17.987 2°51.81 330.9 13.4 330 12.7
2005-10-12 06:56:14 51°18.003 2°51.795 331.2 13.3 330 12.6
2005-10-12 06:56:19 51°18.019 2°51.78 331.8 13.4 330 12.7
2005-10-12 06:56:24 51°18.035 2°51.766 332 13.3 330 12.7
2005-10-12 06:56:29 51°18.051 2°51.751 332.1 13.4 330 12.8
2005-10-12 06:56:34 51°18.067 2°51.736 332.1 13.4 330 12.8
2005-10-12 06:56:40 51°18.087 2°51.718 332.1 13.4 330 12.9
2005-10-12 06:56:44 51°18.099 2°51.707 332.1 13.4 330 12.9
2005-10-12 06:56:49 51°18.116 2°51.692 331.9 13.4 330 13.1
2005-10-12 06:56:54 51°18.132 2°51.677 331.6 13.4 330 13.1
2005-10-12 06:56:59 51°18.148 2°51.662 331.5 13.4 330 13.2
2005-10-12 06:57:04 51°18.164 2°51.647 331.4 13.4 329 13.3
2005-10-12 06:57:09 51°18.18 2°51.632 331.3 13.4 330 13.4
2005-10-12 06:57:14 51°18.195 2°51.617 331.3 13.3 330 13.5
2005-10-12 06:57:19 51°18.212 2°51.603 331.2 13.4 330 13.6
2005-10-12 06:57:24 51°18.227 2°51.588 331.2 13.3 330 13.7
2005-10-12 06:57:30 51°18.246 2°51.569 331.2 13.3 329 13.8
2005-10-12 06:57:34 51°18.259 2°51.557 331.1 13.3 329 13.9
2005-10-12 06:57:39 51°18.275 2°51.542 331 13.4 329 14
2005-10-12 06:57:44 51°18.291 2°51.527 330.9 13.3 329 14.1
2005-10-12 06:57:49 51°18.307 2°51.512 331 13.3 330 14.2
2005-10-12 06:57:54 51°18.323 2°51.497 331.4 13.4 329 14.3
2005-10-12 06:58:00 51°18.342 2°51.479 331.3 13.4 329 14.4
2005-10-12 06:58:04 51°18.355 2°51.467 331.1 13.3 329 14.5
2005-10-12 06:58:10 51°18.374 2°51.449 330.9 13.4 329 14.6
2005-10-12 06:58:14 51°18.387 2°51.437 331 13.4 329 14.8
2005-10-12 06:58:19 51°18.403 2°51.422 331.3 13.4 330 14.8
2005-10-12 06:58:24 51°18.419 2°51.407 331.4 13.4 329 15
2005-10-12 06:58:29 51°18.435 2°51.392 331.4 13.4 329 15.1
2005-10-12 06:58:34 51°18.451 2°51.378 331.3 13.3 330 15.1
2005-10-12 06:58:39 51°18.467 2°51.362 331.3 13.4 330 15.3
2005-10-12 06:58:44 51°18.483 2°51.347 331.3 13.3 329 15.4
2005-10-12 06:58:49 51°18.499 2°51.332 331.4 13.4 329 15.5
2005-10-12 06:58:54 51°18.515 2°51.318 331.5 13.4 329 15.5
2005-10-12 06:59:00 51°18.534 2°51.3 331.6 13.4 329 15.6
2005-10-12 06:59:04 51°18.547 2°51.288 331.6 13.3 330 15.7
2005-10-12 06:59:10 51°18.566 2°51.27 331.6 13.4 330 15.8
2005-10-12 06:59:14 51°18.579 2°51.258 331.6 13.3 330 15.9
2005-10-12 06:59:20 51°18.598 2°51.24 331.4 13.4 330 15.8
2005-10-12 06:59:24 51°18.61 2°51.228 331.2 13.4 329 16
2005-10-12 06:59:30 51°18.63 2°51.21 331.1 13.4 329 16
2005-10-12 06:59:34 51°18.642 2°51.198 331 13.4 329 16.1
2005-10-12 06:59:40 51°18.662 2°51.18 331 13.4 330 16.1
2005-10-12 06:59:44 51°18.675 2°51.168 331.2 13.4 330 16.2
2005-10-12 06:59:50 51°18.694 2°51.15 331.2 13.4 330 16.3
2005-10-12 06:59:54 51°18.707 2°51.138 331.4 13.4 330 16.2
2005-10-12 06:59:59 51°18.723 2°51.123 331.4 13.4 331 16.3
2005-10-12 07:00:04 51°18.739 2°51.109 331.8 13.4 330 16.4
2005-10-12 07:00:10 51°18.759 2°51.091 331.8 13.4 330 16.4
2005-10-12 07:00:14 51°18.772 2°51.079 331.6 13.4 330 16.5
2005-10-12 07:00:19 51°18.788 2°51.064 331.3 13.4 330 16.6
2005-10-12 07:00:24 51°18.804 2°51.05 331.6 13.4 330 16.6
2005-10-12 07:00:29 51°18.82 2°51.035 331.7 13.4 330 16.7
2005-10-12 07:00:34 51°18.837 2°51.02 331.7 13.5 330 16.6
2005-10-12 07:00:39 51°18.853 2°51.006 331.8 13.5 331 16.7
2005-10-12 07:00:44 51°18.869 2°50.991 331.8 13.5 331 16.7
2005-10-12 07:00:49 51°18.886 2°50.977 331.8 13.5 331 16.7
2005-10-12 07:00:54 51°18.902 2°50.962 331.8 13.5 330 16.8
2005-10-12 07:01:00 51°18.921 2°50.944 331.8 13.5 331 16.7
2005-10-12 07:01:04 51°18.934 2°50.932 331.4 13.5 330 16.8
2005-10-12 07:01:09 51°18.95 2°50.917 331.1 13.5 330 16.7
2005-10-12 07:01:14 51°18.967 2°50.903 331.2 13.5 330 16.8
2005-10-12 07:01:20 51°18.986 2°50.885 331.3 13.5 330 16.8
2005-10-12 07:01:24 51°18.999 2°50.873 331.6 13.5 331 16.8
2005-10-12 07:01:29 51°19.016 2°50.858 331.6 13.5 330 16.8
2005-10-12 07:01:34 51°19.032 2°50.844 331.6 13.6 331 16.8
2005-10-12 07:01:39 51°19.048 2°50.829 331.6 13.6 331 16.8
2005-10-12 07:01:44 51°19.065 2°50.814 331.6 13.6 330 16.8
2005-10-12 07:01:50 51°19.085 2°50.797 331.4 13.6 331 16.7
2005-10-12 07:01:54 51°19.098 2°50.785 331.4 13.5 330 16.6
2005-10-12 07:01:59 51°19.114 2°50.77 331.2 13.5 331 16.6
2005-10-12 07:02:05 51°19.134 2°50.753 331.6 13.6 331 16.5
2005-10-12 07:02:10 51°19.15 2°50.738 331.5 13.5 331 16.4
2005-10-12 07:02:14 51°19.163 2°50.727 331.6 13.5 331 16.3
2005-10-12 07:02:19 51°19.18 2°50.712 331.6 13.5 331 16.4
2005-10-12 07:02:24 51°19.196 2°50.698 331.4 13.5 331 16.2
2005-10-12 07:02:30 51°19.216 2°50.68 331.3 13.5 331 16.2
2005-10-12 07:02:34 51°19.229 2°50.668 331 13.5 330 16.1
2005-10-12 07:02:39 51°19.245 2°50.654 330.9 13.5 331 15.9
2005-10-12 07:02:44 51°19.261 2°50.639 330.9 13.5 330 15.5
2005-10-12 07:02:49 51°19.277 2°50.624 331.1 13.5 331 15.6
2005-10-12 07:02:54 51°19.293 2°50.61 331.2 13.5 330 15.3
2005-10-12 07:02:59 51°19.31 2°50.595 330.9 13.5 330 15
2005-10-12 07:03:04 51°19.326 2°50.58 330.9 13.5 330 14.9
2005-10-12 07:03:09 51°19.342 2°50.565 330.7 13.4 330 14.9
2005-10-12 07:03:14 51°19.358 2°50.55 330.6 13.4 330 14.6
2005-10-12 07:03:20 51°19.378 2°50.533 330.6 13.4 330 14.6
2005-10-12 07:03:24 51°19.39 2°50.521 330.3 13.4 330 14.6
2005-10-12 07:03:29 51°19.406 2°50.506 330.6 13.4 330 14.5
2005-10-12 07:03:34 51°19.422 2°50.491 330.9 13.4 330 14.4
2005-10-12 07:03:40 51°19.442 2°50.474 331 13.3 330 14.1
2005-10-12 07:03:44 51°19.455 2°50.462 331 13.3 330 14
2005-10-12 07:03:50 51°19.474 2°50.445 331.1 13.3 330 13.7
2005-10-12 07:03:54 51°19.486 2°50.433 331.4 13.3 330 13.7
2005-10-12 07:03:59 51°19.503 2°50.418 331.4 13.3 330 14.2
2005-10-12 07:04:04 51°19.518 2°50.403 331.1 13.3 330 14.4
2005-10-12 07:04:10 51°19.537 2°50.386 330.7 13.2 329 14.1
2005-10-12 07:04:14 51°19.55 2°50.374 330.4 13.2 330 13.8
2005-10-12 07:04:19 51°19.566 2°50.359 330.5 13.2 330 14.3
2005-10-12 07:04:24 51°19.581 2°50.344 330.6 13.2 330 14
2005-10-12 07:04:30 51°19.601 2°50.327 330.7 13.2 330 14.4
2005-10-12 07:04:34 51°19.613 2°50.315 330.9 13.2 330 14.5
2005-10-12 07:04:39 51°19.629 2°50.3 330.9 13.2 330 14.6
2005-10-12 07:04:44 51°19.645 2°50.286 331.1 13.2 330 14.7
2005-10-12 07:04:50 51°19.664 2°50.268 331.2 13.3 330 15.1
2005-10-12 07:04:54 51°19.677 2°50.256 331.2 13.3 330 15
2005-10-12 07:05:00 51°19.696 2°50.239 331 13.2 330 15.3
2005-10-12 07:05:04 51°19.709 2°50.227 331.2 13.3 330 15.4
2005-10-12 07:05:09 51°19.725 2°50.213 331.2 13.2 330 15.5
2005-10-12 07:05:14 51°19.741 2°50.198 331.2 13.3 330 15.7
2005-10-12 07:05:20 51°19.76 2°50.18 330.9 13.3 329 15.9
2005-10-12 07:05:24 51°19.773 2°50.168 330.6 13.3 330 16.2
2005-10-12 07:05:29 51°19.788 2°50.153 330.5 13.3 329 16.2
2005-10-12 07:05:34 51°19.804 2°50.139 330.4 13.3 330 16.4
2005-10-12 07:05:39 51°19.82 2°50.124 330.5 13.3 330 16.6
2005-10-12 07:05:44 51°19.836 2°50.109 330.2 13.3 329 16.7
2005-10-12 07:05:49 51°19.852 2°50.094 330.9 13.3 330 16.8
2005-10-12 07:05:54 51°19.868 2°50.079 331.1 13.3 330 17
2005-10-12 07:05:59 51°19.884 2°50.065 331.3 13.4 331 17.1
2005-10-12 07:06:05 51°19.904 2°50.047 331.3 13.4 330 17.2
2005-10-12 07:06:09 51°19.917 2°50.036 331.2 13.4 330 17.4
2005-10-12 07:06:14 51°19.933 2°50.021 330.9 13.4 330 17.5
2005-10-12 07:06:19 51°19.949 2°50.006 330.7 13.4 330 17.6
2005-10-12 07:06:24 51°19.965 2°49.991 330.6 13.4 330 17.7
2005-10-12 07:06:29 51°19.981 2°49.976 330.6 13.4 330 18
2005-10-12 07:06:34 51°19.997 2°49.962 330.9 13.4 330 18
2005-10-12 07:06:40 51°20.017 2°49.944 331.2 13.4 331 18.3
2005-10-12 07:06:44 51°20.03 2°49.932 331.6 13.4 331 18.5
2005-10-12 07:06:50 51°20.049 2°49.915 331.6 13.4 330 18.8
2005-10-12 07:06:54 51°20.062 2°49.903 331.1 13.4 330 19.1
2005-10-12 07:07:00 51°20.082 2°49.885 331.1 13.4 330 19.2
2005-10-12 07:07:04 51°20.094 2°49.873 331.2 13.5 331 19.5
2005-10-12 07:07:10 51°20.114 2°49.856 331.3 13.4 331 19.8
2005-10-12 07:07:14 51°20.127 2°49.845 331.6 13.4 331 20
2005-10-12 07:07:19 51°20.143 2°49.83 331.7 13.4 331 20.3
2005-10-12 07:07:24 51°20.159 2°49.815 331.4 13.4 330 20.5
2005-10-12 07:07:29 51°20.176 2°49.801 331.4 13.4 331 20.7
2005-10-12 07:07:34 51°20.192 2°49.787 331.6 13.4 331 20.9
2005-10-12 07:07:39 51°20.209 2°49.773 332.4 13.4 333 21.2
2005-10-12 07:07:45 51°20.229 2°49.757 333.1 13.5 333 21.4
2005-10-12 07:07:49 51°20.242 2°49.747 333.5 13.5 334 21.7
2005-10-12 07:07:54 51°20.259 2°49.733 334.2 13.5 334 22
2005-10-12 07:08:00 51°20.279 2°49.718 334.5 13.5 334 22.3
2005-10-12 07:08:04 51°20.293 2°49.708 334.6 13.5 334 22.4
2005-10-12 07:08:09 51°20.31 2°49.695 334.8 13.5 334 22.7
2005-10-12 07:08:14 51°20.327 2°49.682 334.8 13.5 334 23
2005-10-12 07:08:20 51°20.347 2°49.666 334.7 13.5 334 23.2
2005-10-12 07:08:24 51°20.36 2°49.655 334.6 13.5 334 23.6
2005-10-12 07:08:29 51°20.377 2°49.642 334.4 13.5 334 23.7
2005-10-12 07:08:34 51°20.393 2°49.628 334.4 13.5 334 23.7
2005-10-12 07:08:39 51°20.41 2°49.615 334.4 13.5 333 24
2005-10-12 07:08:44 51°20.427 2°49.602 334.4 13.5 334 24.1
2005-10-12 07:08:50 51°20.447 2°49.586 334.5 13.5 334 24.3
2005-10-12 07:08:54 51°20.461 2°49.576 334.5 13.5 334 24.4
2005-10-12 07:08:59 51°20.477 2°49.563 334.9 13.5 335 24.7
2005-10-12 07:09:05 51°20.498 2°49.548 335.1 13.4 334 24.7
2005-10-12 07:09:10 51°20.514 2°49.534 334.8 13.4 334 24.8
2005-10-12 07:09:14 51°20.527 2°49.523 334.5 13.5 334 24.8
2005-10-12 07:09:20 51°20.547 2°49.508 334.3 13.5 333 24.6
2005-10-12 07:09:24 51°20.561 2°49.497 334.2 13.5 334 24.8
2005-10-12 07:09:30 51°20.581 2°49.481 334.2 13.5 334 24.7
2005-10-12 07:09:34 51°20.595 2°49.47 334.2 13.5 334 24.6
2005-10-12 07:09:39 51°20.611 2°49.457 334.5 13.6 334 24.7
2005-10-12 07:09:44 51°20.628 2°49.444 334.3 13.6 334 24.6
2005-10-12 07:09:49 51°20.645 2°49.431 334.3 13.5 333 24.8
2005-10-12 07:09:54 51°20.662 2°49.418 334.1 13.6 334 24.6
2005-10-12 07:10:00 51°20.682 2°49.402 334.5 13.6 334 24.7
2005-10-12 07:10:04 51°20.696 2°49.392 334.7 13.6 335 24.7
2005-10-12 07:10:09 51°20.713 2°49.379 334.9 13.6 334 24.9
2005-10-12 07:10:14 51°20.73 2°49.365 334.9 13.6 334 24.8
2005-10-12 07:10:20 51°20.75 2°49.349 334.7 13.5 334 24.9
2005-10-12 07:10:24 51°20.763 2°49.338 334.5 13.5 333 24.9
2005-10-12 07:10:29 51°20.78 2°49.325 334.2 13.5 334 24.9
2005-10-12 07:10:34 51°20.796 2°49.312 334.2 13.5 333 24.8
2005-10-12 07:10:39 51°20.813 2°49.299 334.4 13.5 334 24.9
2005-10-12 07:10:44 51°20.83 2°49.286 334.8 13.5 334 24.8
2005-10-12 07:10:49 51°20.847 2°49.272 334.8 13.5 334 24.8
2005-10-12 07:10:54 51°20.864 2°49.259 334.8 13.5 333 24.7
2005-10-12 07:10:59 51°20.881 2°49.246 334.7 13.5 334 24.7
2005-10-12 07:11:05 51°20.901 2°49.23 334.8 13.5 334 24.5
2005-10-12 07:11:10 51°20.918 2°49.217 334.8 13.5 334 24.4
2005-10-12 07:11:14 51°20.931 2°49.206 335 13.5 334 24.3
2005-10-12 07:11:19 51°20.949 2°49.193 335.1 13.6 334 24.3
2005-10-12 07:11:24 51°20.965 2°49.181 335.2 13.5 334 24.3
2005-10-12 07:11:30 51°20.985 2°49.164 335.2 13.5 333 24.3
2005-10-12 07:11:34 51°20.999 2°49.154 335 13.6 335 24.2
2005-10-12 07:11:39 51°21.016 2°49.141 335.1 13.6 334 24.1
2005-10-12 07:11:44 51°21.033 2°49.128 334.9 13.6 334 24
2005-10-12 07:11:50 51°21.053 2°49.112 334.6 13.6 333 24.1
2005-10-12 07:11:54 51°21.067 2°49.101 334.1 13.5 333 24
2005-10-12 07:11:59 51°21.084 2°49.088 334.1 13.6 334 24.1
2005-10-12 07:12:04 51°21.101 2°49.075 334.5 13.6 335 24
2005-10-12 07:12:09 51°21.118 2°49.063 336.2 13.6 336 23.8
2005-10-12 07:12:14 51°21.135 2°49.051 337.4 13.5 337 23.7
2005-10-12 07:12:19 51°21.153 2°49.04 338.4 13.6 338 23.8
2005-10-12 07:12:25 51°21.174 2°49.027 338.9 13.6 338 23.6
2005-10-12 07:12:29 51°21.188 2°49.018 339.5 13.7 339 23
2005-10-12 07:12:34 51°21.206 2°49.007 339.8 13.7 339 22.8
2005-10-12 07:12:40 51°21.227 2°48.994 340.3 13.6 339 22.1
2005-10-12 07:12:44 51°21.241 2°48.986 340.4 13.7 339 21.8
2005-10-12 07:12:49 51°21.259 2°48.975 340.4 13.8 340 22.1
2005-10-12 07:12:54 51°21.277 2°48.965 340.5 13.7 340 21.7
2005-10-12 07:13:00 51°21.299 2°48.952 340.6 13.7 340 22
2005-10-12 07:13:04 51°21.313 2°48.944 340.4 13.8 339 21.7
2005-10-12 07:13:10 51°21.334 2°48.93 339.7 13.8 339 21.9
2005-10-12 07:13:14 51°21.348 2°48.922 339.6 13.7 340 22.5
2005-10-12 07:13:19 51°21.367 2°48.913 341.9 13.7 340 22.7
2005-10-12 07:13:24 51°21.385 2°48.905 343.8 13.8 343 22.9
2005-10-12 07:13:30 51°21.408 2°48.895 345.4 13.9 345 22.9
2005-10-12 07:13:34 51°21.423 2°48.89 346.4 13.9 345 23.2
2005-10-12 07:13:40 51°21.445 2°48.881 347 13.9 346 23.5
2005-10-12 07:13:44 51°21.46 2°48.875 347.6 13.9 347 23.6
2005-10-12 07:13:50 51°21.483 2°48.867 348 14 347 23.6
2005-10-12 07:13:54 51°21.498 2°48.862 348.3 13.9 347 23.9
2005-10-12 07:13:59 51°21.517 2°48.855 348.8 14 347 24
2005-10-12 07:14:04 51°21.536 2°48.848 348.8 14 347 24.2
2005-10-12 07:14:09 51°21.555 2°48.842 348.7 14 347 24.6
2005-10-12 07:14:14 51°21.574 2°48.835 348.6 14 347 24.6
2005-10-12 07:14:19 51°21.593 2°48.828 348.4 14 348 24.8
2005-10-12 07:14:25 51°21.616 2°48.82 348.5 14.1 348 24.9
2005-10-12 07:14:29 51°21.631 2°48.815 348.6 14 347 25
2005-10-12 07:14:34 51°21.65 2°48.808 348.2 14 347 25.1
2005-10-12 07:14:40 51°21.672 2°48.799 348 14 347 25.1
2005-10-12 07:14:44 51°21.687 2°48.793 347.7 14 347 25.3
2005-10-12 07:14:49 51°21.706 2°48.786 347.8 14.1 347 25.3
2005-10-12 07:14:54 51°21.725 2°48.779 347.9 14 347 25.2
2005-10-12 07:15:00 51°21.748 2°48.771 347.8 14 347 25.3
2005-10-12 07:15:04 51°21.763 2°48.764 347.9 14 346 25.3
2005-10-12 07:15:09 51°21.781 2°48.755 346.4 13.8 343 25.2
2005-10-12 07:15:14 51°21.799 2°48.745 343.8 13.7 340 25.5
2005-10-12 07:15:19 51°21.817 2°48.734 341.6 13.7 340 25.3
2005-10-12 07:15:24 51°21.834 2°48.722 339.8 13.6 338 25.3
2005-10-12 07:15:29 51°21.851 2°48.71 339 13.5 337 25.5
2005-10-12 07:15:34 51°21.868 2°48.698 338.2 13.5 337 25.4
2005-10-12 07:15:39 51°21.885 2°48.685 337.7 13.3 335 25.5
2005-10-12 07:15:45 51°21.904 2°48.668 335.4 13.3 333 25.2
2005-10-12 07:15:49 51°21.917 2°48.657 333.5 13.3 332 25.5
2005-10-12 07:15:54 51°21.933 2°48.642 331.9 13.3 329 25.6
2005-10-12 07:15:59 51°21.949 2°48.627 330.6 13.3 329 25
2005-10-12 07:16:04 51°21.964 2°48.612 330.2 13.3 330 25.4
2005-10-12 07:16:10 51°21.983 2°48.593 329.8 13.3 329 25.2
2005-10-12 07:16:14 51°21.996 2°48.581 329.4 13.3 329 25.4
2005-10-12 07:16:20 51°22.015 2°48.563 329.5 13.3 329 25.1
2005-10-12 07:16:24 51°22.027 2°48.551 329.1 13.3 328 25.6
2005-10-12 07:16:29 51°22.043 2°48.535 329 13.3 328 25.5
2005-10-12 07:16:34 51°22.059 2°48.519 328.5 13.3 328 25.3
2005-10-12 07:16:39 51°22.074 2°48.504 328.2 13.3 328 25.4
2005-10-12 07:16:44 51°22.09 2°48.488 328.2 13.3 327 25.5
2005-10-12 07:16:49 51°22.106 2°48.472 328 13.3 327 25.4
2005-10-12 07:16:54 51°22.121 2°48.456 327.1 13.3 327 25.5
2005-10-12 07:17:00 51°22.139 2°48.437 326.8 13.2 327 25.6
2005-10-12 07:17:04 51°22.151 2°48.423 326.6 13.2 326 25.3
2005-10-12 07:17:09 51°22.167 2°48.407 326.6 13.2 327 25.6
2005-10-12 07:17:14 51°22.182 2°48.391 326.5 13.2 326 25.5
2005-10-12 07:17:19 51°22.197 2°48.375 326.1 13.3 326 25.5
2005-10-12 07:17:25 51°22.215 2°48.354 325.9 13.3 326 25.3
2005-10-12 07:17:29 51°22.227 2°48.341 325.6 13.2 326 24.8
2005-10-12 07:17:34 51°22.243 2°48.325 325.9 13.2 326 24.4
2005-10-12 07:17:39 51°22.258 2°48.309 326.3 13.2 326 24
2005-10-12 07:17:44 51°22.273 2°48.292 326.5 13.2 326 23.2
2005-10-12 07:17:49 51°22.288 2°48.276 325.8 13.2 326 23.5
2005-10-12 07:17:54 51°22.304 2°48.26 325.6 13.3 327 22.7
2005-10-12 07:18:00 51°22.321 2°48.24 325.6 13.2 326 23.1
2005-10-12 07:18:04 51°22.333 2°48.226 325 13.1 325 22.6
2005-10-12 07:18:10 51°22.351 2°48.206 324.8 13.1 325 21.7
2005-10-12 07:18:14 51°22.363 2°48.193 324.7 13.1 325 20.6
2005-10-12 07:18:19 51°22.378 2°48.177 324.9 13.1 325 18.9
2005-10-12 07:18:24 51°22.393 2°48.161 325.6 13.2 326 16.1
2005-10-12 07:18:30 51°22.412 2°48.141 325.7 13.2 326 16.9
2005-10-12 07:18:34 51°22.424 2°48.128 325.8 13.2 327 18
2005-10-12 07:18:39 51°22.439 2°48.111 325.5 13.2 325 19.1
2005-10-12 07:18:44 51°22.454 2°48.095 325.1 13.2 325 19.3
2005-10-12 07:18:50 51°22.472 2°48.074 325 13.2 325 19.6
2005-10-12 07:18:54 51°22.484 2°48.061 325.1 13.3 326 19.7
2005-10-12 07:19:00 51°22.502 2°48.041 325.1 13.2 325 19.9
2005-10-12 07:19:04 51°22.515 2°48.028 325.4 13.3 326 19.9
2005-10-12 07:19:09 51°22.53 2°48.011 325.6 13.3 325 20
2005-10-12 07:19:14 51°22.545 2°47.995 325.4 13.3 325 20.1
2005-10-12 07:19:20 51°22.563 2°47.974 325.4 13.2 325 20
2005-10-12 07:19:24 51°22.575 2°47.961 325.2 13.2 325 20
2005-10-12 07:19:29 51°22.59 2°47.944 325.4 13.2 325 19.4
2005-10-12 07:19:34 51°22.605 2°47.928 325.4 13.2 326 18.9
2005-10-12 07:19:40 51°22.624 2°47.909 326 13.2 327 17.7
2005-10-12 07:19:44 51°22.636 2°47.896 326.5 13.2 327 19.4
2005-10-12 07:19:50 51°22.655 2°47.877 326.6 13.2 327 20.2
2005-10-12 07:19:54 51°22.667 2°47.864 326.6 13.3 327 20.1
2005-10-12 07:20:00 51°22.685 2°47.844 325.9 13.3 326 19.4
2005-10-12 07:20:05 51°22.701 2°47.828 325.4 13.3 326 20.1
2005-10-12 07:20:10 51°22.716 2°47.811 325.8 13.3 326 20.1
2005-10-12 07:20:14 51°22.728 2°47.798 325.4 13.3 326 19.4
2005-10-12 07:20:19 51°22.743 2°47.781 325.1 13.3 326 20.1
2005-10-12 07:20:24 51°22.758 2°47.764 325 13.2 326 20.4
2005-10-12 07:20:30 51°22.777 2°47.745 325.2 13.3 326 20.1
2005-10-12 07:20:34 51°22.789 2°47.731 325.8 13.3 326 18.1
2005-10-12 07:20:39 51°22.804 2°47.715 325.8 13.3 326 19.5
2005-10-12 07:20:44 51°22.82 2°47.699 326.5 13.4 327 20.5
2005-10-12 07:20:50 51°22.838 2°47.679 326.5 13.3 326 21.2
2005-10-12 07:20:54 51°22.851 2°47.667 326.4 13.4 327 21.6
2005-10-12 07:20:59 51°22.866 2°47.65 326.4 13.3 326 21.7
2005-10-12 07:21:04 51°22.881 2°47.634 325.9 13.3 326 22.3
2005-10-12 07:21:10 51°22.9 2°47.614 325.9 13.3 326 22.1
2005-10-12 07:21:14 51°22.913 2°47.602 326.3 13.3 327 20.4
2005-10-12 07:21:20 51°22.931 2°47.582 326.6 13.3 326 20.1
2005-10-12 07:21:24 51°22.943 2°47.57 326.3 13.3 326 19.9
2005-10-12 07:21:29 51°22.959 2°47.553 326.4 13.4 327 19.3
2005-10-12 07:21:34 51°22.974 2°47.537 326.2 13.3 327 18.4
2005-10-12 07:21:40 51°22.993 2°47.518 326.2 13.3 326 20.6
2005-10-12 07:21:44 51°23.005 2°47.505 325.7 13.3 326 21.3
2005-10-12 07:21:49 51°23.02 2°47.488 325.3 13.3 326 22.1
2005-10-12 07:21:54 51°23.035 2°47.471 325.5 13.3 325 22.5
2005-10-12 07:22:00 51°23.054 2°47.451 325.4 13.3 326 23.2
2005-10-12 07:22:04 51°23.066 2°47.438 325.5 13.3 326 23.2
2005-10-12 07:22:10 51°23.085 2°47.419 325.6 13.3 326 23.2
2005-10-12 07:22:14 51°23.097 2°47.406 326 13.3 327 22.8
2005-10-12 07:22:19 51°23.112 2°47.39 326.6 13.3 327 20
2005-10-12 07:22:24 51°23.128 2°47.373 326.6 13.3 326 21.1
2005-10-12 07:22:29 51°23.143 2°47.357 326.6 13.3 326 21.2
2005-10-12 07:22:34 51°23.158 2°47.34 325.5 13.2 325 21.2
2005-10-12 07:22:40 51°23.176 2°47.321 325.7 13.3 326 20.4
2005-10-12 07:22:44 51°23.188 2°47.307 326.2 13.3 326 19.3
2005-10-12 07:22:50 51°23.207 2°47.288 326.3 13.2 326 20.5
2005-10-12 07:22:54 51°23.219 2°47.274 326.7 13.3 327 21.4
2005-10-12 07:22:59 51°23.234 2°47.258 326.7 13.3 326 22.7
2005-10-12 07:23:04 51°23.25 2°47.242 326.7 13.2 327 23.4
2005-10-12 07:23:10 51°23.268 2°47.222 326.8 13.3 326 24
2005-10-12 07:23:14 51°23.28 2°47.209 326.7 13.3 327 24
2005-10-12 07:23:20 51°23.298 2°47.189 326.6 13.3 327 23.1
2005-10-12 07:23:24 51°23.31 2°47.176 325.9 13.2 326 22.3
2005-10-12 07:23:29 51°23.326 2°47.159 326.4 13.2 326 22.6
2005-10-12 07:23:34 51°23.341 2°47.143 326.2 13.3 326 22.6
2005-10-12 07:23:40 51°23.359 2°47.122 326.2 13.3 326 22.9
2005-10-12 07:23:44 51°23.371 2°47.109 325.6 13.3 325 22.5
2005-10-12 07:23:49 51°23.387 2°47.093 326.1 13.3 327 21.9
2005-10-12 07:23:54 51°23.402 2°47.076 326.6 13.3 326 22.6
2005-10-12 07:23:59 51°23.418 2°47.061 326.9 13.3 328 22.7
2005-10-12 07:24:04 51°23.433 2°47.045 327.2 13.3 328 23.5
2005-10-12 07:24:09 51°23.448 2°47.028 326.4 13.3 326 23.6
2005-10-12 07:24:14 51°23.464 2°47.012 326.4 13.3 327 23.8
2005-10-12 07:24:20 51°23.482 2°46.992 326.4 13.4 326 24.4
2005-10-12 07:24:24 51°23.495 2°46.979 326.6 13.4 327 25.2
2005-10-12 07:24:29 51°23.51 2°46.963 326.6 13.4 327 25.4
2005-10-12 07:24:34 51°23.525 2°46.947 326.7 13.4 327 26
2005-10-12 07:24:39 51°23.541 2°46.93 326.6 13.4 326 26.3
2005-10-12 07:24:45 51°23.559 2°46.91 326.2 13.4 326 26.5
2005-10-12 07:24:49 51°23.572 2°46.897 326.2 13.4 326 26.7
2005-10-12 07:24:54 51°23.587 2°46.881 326.4 13.4 327 27.2
2005-10-12 07:25:00 51°23.606 2°46.861 326.7 13.4 328 27.4
2005-10-12 07:25:04 51°23.618 2°46.848 326.4 13.3 326 27.3
2005-10-12 07:25:10 51°23.637 2°46.829 326.7 13.4 328 27.4
2005-10-12 07:25:14 51°23.649 2°46.816 326.9 13.4 326 27.7
2005-10-12 07:25:19 51°23.665 2°46.8 326.5 13.3 327 27.9
2005-10-12 07:25:24 51°23.68 2°46.783 326.2 13.4 327 28.1
2005-10-12 07:25:29 51°23.695 2°46.767 325.7 13.4 326 28
2005-10-12 07:25:34 51°23.711 2°46.75 325.1 13.3 326 28.2
2005-10-12 07:25:40 51°23.729 2°46.73 325.7 13.4 326 28
2005-10-12 07:25:44 51°23.742 2°46.717 326.1 13.4 327 28.3
2005-10-12 07:25:49 51°23.757 2°46.701 326.6 13.4 327 28.6
2005-10-12 07:25:54 51°23.773 2°46.685 326.8 13.4 327 28.7
2005-10-12 07:25:59 51°23.788 2°46.669 326.9 13.4 327 28.9
2005-10-12 07:26:04 51°23.804 2°46.653 327 13.3 326 29
2005-10-12 07:26:10 51°23.823 2°46.633 326.6 13.3 326 29
2005-10-12 07:26:14 51°23.835 2°46.62 326.2 13.4 326 29.3
2005-10-12 07:26:20 51°23.853 2°46.6 326.3 13.4 327 29
2005-10-12 07:26:24 51°23.866 2°46.587 326.3 13.4 327 28.8
2005-10-12 07:26:29 51°23.881 2°46.571 326.3 13.3 326 29.1
2005-10-12 07:26:34 51°23.897 2°46.555 326.3 13.3 327 29.3
2005-10-12 07:26:40 51°23.915 2°46.536 326.5 13.4 327 29.7
2005-10-12 07:26:45 51°23.931 2°46.52 326.5 13.4 326 29.6
2005-10-12 07:26:49 51°23.943 2°46.506 326.4 13.4 327 29.6
2005-10-12 07:26:54 51°23.959 2°46.49 326.1 13.4 325 29.6
2005-10-12 07:27:00 51°23.977 2°46.47 325.8 13.4 326 29.9
2005-10-12 07:27:04 51°23.99 2°46.457 325.6 13.4 326 29.8
2005-10-12 07:27:09 51°24.005 2°46.44 325.5 13.4 326 30.4
2005-10-12 07:27:14 51°24.021 2°46.424 325.5 13.4 326 30.9
2005-10-12 07:27:19 51°24.036 2°46.407 325.1 13.4 327 30.9
2005-10-12 07:27:24 51°24.052 2°46.391 326 13.4 327 31
2005-10-12 07:27:30 51°24.071 2°46.372 326.6 13.5 327 31.3
2005-10-12 07:27:34 51°24.083 2°46.359 326.8 13.5 327 31.7
2005-10-12 07:27:39 51°24.099 2°46.343 326.2 13.5 327 32.1
2005-10-12 07:27:44 51°24.114 2°46.326 326.5 13.5 326 32.3
2005-10-12 07:27:50 51°24.133 2°46.306 326.4 13.5 327 31.9
2005-10-12 07:27:54 51°24.146 2°46.293 326.3 13.5 326 29.9
2005-10-12 07:27:59 51°24.161 2°46.276 325.7 13.4 327 28.4
2005-10-12 07:28:05 51°24.18 2°46.257 326.3 13.5 328 28.4
2005-10-12 07:28:10 51°24.195 2°46.241 326.7 13.5 327 28.3
2005-10-12 07:28:14 51°24.208 2°46.228 326.9 13.5 328 28.2
2005-10-12 07:28:20 51°24.227 2°46.209 326.9 13.4 327 28.8
2005-10-12 07:28:24 51°24.24 2°46.196 326.7 13.4 327 29.5
2005-10-12 07:28:29 51°24.255 2°46.18 326.7 13.4 327 30
2005-10-12 07:28:34 51°24.271 2°46.164 326.6 13.5 327 30.2
2005-10-12 07:28:39 51°24.286 2°46.147 325.8 13.4 326 30.4
2005-10-12 07:28:44 51°24.302 2°46.131 325.7 13.4 327 30.3
2005-10-12 07:28:49 51°24.317 2°46.114 325.8 13.4 326 30.3
2005-10-12 07:28:54 51°24.333 2°46.098 325.4 13.4 327 30.4
2005-10-12 07:29:00 51°24.351 2°46.078 325.7 13.4 327 30.4
2005-10-12 07:29:04 51°24.364 2°46.065 325.4 13.4 327 30.3
2005-10-12 07:29:10 51°24.383 2°46.046 326 13.4 327 30.3
2005-10-12 07:29:14 51°24.395 2°46.033 326.1 13.4 327 29.7
2005-10-12 07:29:19 51°24.411 2°46.017 326 13.4 327 29.2
2005-10-12 07:29:25 51°24.429 2°45.997 325.8 13.4 326 29
2005-10-12 07:29:30 51°24.445 2°45.981 325.8 13.4 328 29.1
2005-10-12 07:29:34 51°24.458 2°45.968 326.2 13.5 327 29.1
2005-10-12 07:29:40 51°24.477 2°45.948 326.2 13.4 327 28.5
2005-10-12 07:29:45 51°24.492 2°45.932 325.9 13.5 326 27.5
2005-10-12 07:29:50 51°24.508 2°45.916 325.8 13.5 328 27.2
2005-10-12 07:29:54 51°24.52 2°45.903 326.4 13.4 327 27.5
2005-10-12 07:29:59 51°24.536 2°45.887 326.6 13.5 328 27.3
2005-10-12 07:30:04 51°24.552 2°45.871 326.7 13.4 328 27.3
2005-10-12 07:30:09 51°24.568 2°45.855 326.4 13.4 327 27.4
2005-10-12 07:30:14 51°24.583 2°45.839 326.1 13.4 327 27.2
2005-10-12 07:30:20 51°24.602 2°45.819 325.7 13.4 327 27.5
2005-10-12 07:30:24 51°24.614 2°45.806 325.5 13.4 327 27.2
2005-10-12 07:30:29 51°24.63 2°45.789 325.6 13.5 327 27.3
2005-10-12 07:30:34 51°24.646 2°45.774 326.2 13.5 328 27
2005-10-12 07:30:39 51°24.662 2°45.758 326.9 13.5 328 27.1
2005-10-12 07:30:45 51°24.681 2°45.739 326.9 13.5 328 26.8
2005-10-12 07:30:49 51°24.693 2°45.726 326.8 13.5 328 27.3
2005-10-12 07:30:54 51°24.71 2°45.711 326.9 13.5 328 26.6
2005-10-12 07:31:00 51°24.729 2°45.692 326.9 13.5 328 27
2005-10-12 07:31:04 51°24.741 2°45.679 327 13.5 327 26.9
2005-10-12 07:31:10 51°24.76 2°45.659 326.6 13.5 327 27
2005-10-12 07:31:14 51°24.772 2°45.646 325.9 13.5 326 27
2005-10-12 07:31:19 51°24.788 2°45.629 324.6 13.5 325 27
2005-10-12 07:31:24 51°24.803 2°45.611 323.6 13.5 325 27
2005-10-12 07:31:30 51°24.821 2°45.591 323.6 13.5 325 26.4
2005-10-12 07:31:34 51°24.834 2°45.576 323.6 13.5 324 27
2005-10-12 07:31:39 51°24.849 2°45.559 323.2 13.5 324 27.5
2005-10-12 07:31:44 51°24.864 2°45.542 323.2 13.5 324 27.9
2005-10-12 07:31:50 51°24.882 2°45.52 323.1 13.5 323 27.8
2005-10-12 07:31:54 51°24.894 2°45.506 322.4 13.4 323 27.8
2005-10-12 07:32:00 51°24.911 2°45.483 322.2 13.4 322 28.3
2005-10-12 07:32:05 51°24.926 2°45.466 322 13.3 323 28.1
2005-10-12 07:32:10 51°24.94 2°45.447 322 13.3 321 27.8
2005-10-12 07:32:14 51°24.952 2°45.433 322 13.3 323 27.6
2005-10-12 07:32:19 51°24.967 2°45.415 322.5 13.3 323 26.1
2005-10-12 07:32:24 51°24.982 2°45.398 323.4 13.3 323 26.4
2005-10-12 07:32:29 51°24.996 2°45.38 322.9 13.2 323 27.6
2005-10-12 07:32:34 51°25.011 2°45.362 322.5 13.2 322 28
2005-10-12 07:32:39 51°25.025 2°45.344 322.2 13.2 322 28.3
2005-10-12 07:32:44 51°25.04 2°45.326 321.5 13.2 321 28
2005-10-12 07:32:49 51°25.054 2°45.307 321.5 13.2 321 27
2005-10-12 07:32:54 51°25.068 2°45.289 321.4 13.2 322 26.2
2005-10-12 07:33:00 51°25.086 2°45.268 321.7 13.2 322 27
2005-10-12 07:33:04 51°25.097 2°45.254 321.9 13.2 322 28.1
2005-10-12 07:33:10 51°25.114 2°45.231 322 13.2 322 28
2005-10-12 07:33:14 51°25.126 2°45.217 322 13.2 322 27.9
2005-10-12 07:33:20 51°25.143 2°45.195 321.5 13.2 321 27.9
2005-10-12 07:33:24 51°25.155 2°45.181 321.5 13.2 322 27.6
2005-10-12 07:33:29 51°25.169 2°45.163 321.5 13.2 322 26.9
2005-10-12 07:33:34 51°25.184 2°45.145 322.2 13.2 324 26.6
2005-10-12 07:33:39 51°25.198 2°45.128 322.6 13.2 322 26.9
2005-10-12 07:33:44 51°25.213 2°45.11 322.7 13.2 323 27.2
2005-10-12 07:33:50 51°25.23 2°45.089 322.9 13.1 323 27.5
2005-10-12 07:33:54 51°25.241 2°45.074 322.5 13.1 322 27.9
2005-10-12 07:33:59 51°25.256 2°45.057 322.8 13.2 323 27.7
2005-10-12 07:34:04 51°25.271 2°45.039 322.9 13.2 322 27.6
2005-10-12 07:34:10 51°25.288 2°45.018 323.3 13.3 323 27.7
2005-10-12 07:34:14 51°25.3 2°45.004 323.2 13.2 323 27.6
2005-10-12 07:34:20 51°25.317 2°44.982 322.9 13.3 322 27.5
2005-10-12 07:34:24 51°25.329 2°44.967 322.2 13.2 322 27.2
2005-10-12 07:34:29 51°25.343 2°44.949 321.7 13.1 321 26.9
2005-10-12 07:34:34 51°25.357 2°44.93 321.1 13.2 320 27
2005-10-12 07:34:40 51°25.374 2°44.908 320.7 13.2 321 26.9
2005-10-12 07:34:44 51°25.385 2°44.893 320.9 13.2 321 27
2005-10-12 07:34:50 51°25.403 2°44.872 321.5 13.1 321 26.8
2005-10-12 07:34:54 51°25.414 2°44.858 322.2 13.2 322 26.4
2005-10-12 07:35:00 51°25.431 2°44.835 322.2 13.1 321 26.9
2005-10-12 07:35:04 51°25.443 2°44.821 322.2 13.1 321 26.8
2005-10-12 07:35:09 51°25.457 2°44.803 322.3 13.2 321 26.9
2005-10-12 07:35:14 51°25.471 2°44.785 322.1 13.1 321 26.9
2005-10-12 07:35:19 51°25.485 2°44.766 321.6 13.2 321 26.6
2005-10-12 07:35:24 51°25.499 2°44.747 321.1 13.2 320 26.5
2005-10-12 07:35:29 51°25.513 2°44.728 320.9 13.2 320 26.4
2005-10-12 07:35:34 51°25.527 2°44.71 320.8 13.2 320 25.9
2005-10-12 07:35:40 51°25.544 2°44.688 321.6 13.1 321 26
2005-10-12 07:35:44 51°25.556 2°44.673 321.4 13.2 321 26.5
2005-10-12 07:35:50 51°25.573 2°44.651 321.6 13.2 321 26.4
2005-10-12 07:35:54 51°25.584 2°44.636 321.7 13.2 321 26.3
2005-10-12 07:36:00 51°25.602 2°44.615 322.1 13.1 322 26.1
2005-10-12 07:36:04 51°25.613 2°44.6 322.5 13.1 322 26.3
2005-10-12 07:36:10 51°25.63 2°44.579 322.5 13.1 321 26.3
2005-10-12 07:36:14 51°25.641 2°44.564 322.2 13.1 321 26.3
2005-10-12 07:36:20 51°25.659 2°44.542 321.6 13.2 320 25.6
2005-10-12 07:36:25 51°25.672 2°44.523 321.5 13.2 321 25.9
2005-10-12 07:36:29 51°25.684 2°44.508 320.8 13.1 320 26
2005-10-12 07:36:34 51°25.698 2°44.49 320.9 13.1 320 26.1
2005-10-12 07:36:40 51°25.714 2°44.468 320.7 13.1 319 26.6
2005-10-12 07:36:44 51°25.726 2°44.453 320.8 13.1 321 27
2005-10-12 07:36:49 51°25.74 2°44.434 320.9 13.1 320 27.1
2005-10-12 07:36:54 51°25.754 2°44.415 321.2 13.1 320 27.1
2005-10-12 07:37:00 51°25.771 2°44.394 321.5 13.2 321 27.5
2005-10-12 07:37:04 51°25.783 2°44.379 321.5 13.2 322 26.9
2005-10-12 07:37:09 51°25.797 2°44.36 321.7 13.2 321 26.5
2005-10-12 07:37:14 51°25.811 2°44.342 322.1 13.2 322 26.4
2005-10-12 07:37:20 51°25.828 2°44.32 321.6 13.1 320 25.7
2005-10-12 07:37:24 51°25.84 2°44.305 321.7 13.1 321 25.1
2005-10-12 07:37:30 51°25.856 2°44.284 321.4 13.1 320 25.9
2005-10-12 07:37:34 51°25.867 2°44.269 321.3 13 321 27
2005-10-12 07:37:40 51°25.884 2°44.247 321 13.1 320 27.6
2005-10-12 07:37:45 51°25.899 2°44.228 321.2 13.1 320 27.9
2005-10-12 07:37:49 51°25.91 2°44.214 321.5 13.1 321 28
2005-10-12 07:37:54 51°25.923 2°44.196 321.1 12.5 320 28.2
2005-10-12 07:38:00 51°25.937 2°44.178 320.9 11.6 321 28
2005-10-12 07:38:04 51°25.946 2°44.166 319.9 10.4 319 28.6
2005-10-12 07:38:10 51°25.957 2°44.149 317.4 9.3 316 28.7
2005-10-12 07:38:14 51°25.963 2°44.138 313.3 8.5 314 28.6
2005-10-12 07:38:19 51°25.969 2°44.125 308.2 7.6 309 28.5
2005-10-12 07:38:25 51°25.975 2°44.111 303 7.1 306 28.3
2005-10-12 07:38:30 51°25.979 2°44.1 298 6.1 300 28
2005-10-12 07:38:34 51°25.982 2°44.091 293.3 5.6 298 26.8
2005-10-12 07:38:39 51°25.985 2°44.081 289 5.1 296 25.7
2005-10-12 07:38:44 51°25.987 2°44.071 285.7 4.9 293 26.7
2005-10-12 07:38:50 51°25.99 2°44.061 283.8 4.2 293 27.3
2005-10-12 07:38:54 51°25.992 2°44.055 281.9 3.8 292 27.7
2005-10-12 07:39:00 51°25.993 2°44.047 278.6 3.4 289 28
2005-10-12 07:39:04 51°25.994 2°44.042 275 3.1 288 28.1
2005-10-12 07:39:10 51°25.995 2°44.036 271.9 2.6 286 28.4
2005-10-12 07:39:14 51°25.996 2°44.032 267.5 2.3 285 28.4
2005-10-12 07:39:19 51°25.997 2°44.029 264.1 1.7 291 28.2
2005-10-12 07:39:24 51°25.998 2°44.027 261.4 1.3 304 28.2
2005-10-12 07:39:30 51°26 2°44.026 259.4 0.9 333 28.2
2005-10-12 07:39:34 51°26.001 2°44.026 258.2 1 2 28.2
2005-10-12 07:39:40 51°26.003 2°44.027 257.3 1.2 16 28.5
2005-10-12 07:39:44 51°26.004 2°44.028 257.2 1.3 19 28.2
2005-10-12 07:39:49 51°26.006 2°44.029 257.5 1.3 19 28.2
2005-10-12 07:39:54 51°26.008 2°44.03 257.7 1.3 19 28.2
2005-10-12 07:40:00 51°26.01 2°44.031 258.1 1.3 18 28.3
2005-10-12 07:40:04 51°26.011 2°44.032 258.7 1.3 16 28.6
2005-10-12 07:40:10 51°26.013 2°44.033 259.5 1.2 19 28.3
2005-10-12 07:40:14 51°26.015 2°44.034 259.7 1.3 16 28.2
2005-10-12 07:40:19 51°26.016 2°44.035 259.9 1.4 20 28
2005-10-12 07:40:25 51°26.019 2°44.036 260.2 1.3 20 28.2
2005-10-12 07:40:30 51°26.02 2°44.037 260 1.3 20 28.2
2005-10-12 07:40:34 51°26.022 2°44.037 259.9 1.3 20 28.1
2005-10-12 07:40:39 51°26.024 2°44.038 260.1 1.3 18 28
2005-10-12 07:40:44 51°26.025 2°44.039 260.3 1.4 17 27.9
2005-10-12 07:40:50 51°26.028 2°44.041 260.5 1.4 20 27.7
2005-10-12 07:40:54 51°26.029 2°44.042 260.6 1.4 18 27.7
2005-10-12 07:40:59 51°26.031 2°44.043 260.7 1.4 20 27.7
2005-10-12 07:41:04 51°26.033 2°44.044 260.9 1.4 20 27.5
2005-10-12 07:41:09 51°26.035 2°44.045 261.2 1.4 20 27.3
2005-10-12 07:41:14 51°26.036 2°44.046 261.2 1.4 17 26.9
2005-10-12 07:41:20 51°26.038 2°44.047 261.4 1.4 16 26.2
2005-10-12 07:41:24 51°26.04 2°44.047 261.9 1.3 14 25.7
2005-10-12 07:41:30 51°26.042 2°44.048 262.4 1.3 14 25.5
2005-10-12 07:41:34 51°26.044 2°44.049 263.3 1.4 12 25.7
2005-10-12 07:41:40 51°26.046 2°44.05 264 1.3 12 26.2
2005-10-12 07:41:44 51°26.048 2°44.05 264.2 1.3 12 26.4
2005-10-12 07:41:50 51°26.05 2°44.051 264.8 1.3 11 26.5
2005-10-12 07:41:54 51°26.051 2°44.051 265.3 1.3 11 26.4
2005-10-12 07:41:59 51°26.053 2°44.052 265.5 1.3 10 26.5
2005-10-12 07:42:04 51°26.054 2°44.052 265.6 1.3 10 26.7
2005-10-12 07:42:09 51°26.056 2°44.052 265.7 1.2 7 26.8
2005-10-12 07:42:14 51°26.058 2°44.053 265.5 1.2 8 27.1
2005-10-12 07:42:20 51°26.06 2°44.053 265.5 1.3 7 27.4
2005-10-12 07:42:24 51°26.061 2°44.053 265.1 1.2 5 27.3
2005-10-12 07:42:29 51°26.063 2°44.053 264.9 1.2 4 27.1
2005-10-12 07:42:34 51°26.064 2°44.054 264.1 1.2 2 27.3
2005-10-12 07:42:39 51°26.066 2°44.054 263.5 1.2 4 27.6
2005-10-12 07:42:44 51°26.068 2°44.054 262.7 1.2 7 27.5
2005-10-12 07:42:50 51°26.07 2°44.055 261.9 1.2 6 27.7
2005-10-12 07:42:54 51°26.071 2°44.055 260.5 1.2 7 27.9
2005-10-12 07:43:00 51°26.073 2°44.055 260 1.1 9 28.2
2005-10-12 07:43:05 51°26.074 2°44.055 259.3 1.1 6 27.8
2005-10-12 07:43:09 51°26.075 2°44.056 258.7 1.1 8 27.7
2005-10-12 07:43:14 51°26.077 2°44.056 258.2 1.1 7 27.9
2005-10-12 07:43:20 51°26.079 2°44.056 257.5 1.2 11 28.2
2005-10-12 07:43:24 51°26.08 2°44.057 256.9 1.2 9 28.3
2005-10-12 07:43:29 51°26.082 2°44.058 256.9 1.2 11 28.1
2005-10-12 07:43:34 51°26.084 2°44.058 256.9 1.2 11 28.3
2005-10-12 07:43:39 51°26.085 2°44.059 256.9 1.3 14 28.5
2005-10-12 07:43:44 51°26.087 2°44.06 256.9 1.3 11 28.3
2005-10-12 07:43:49 51°26.089 2°44.06 256.9 1.3 12 28.1
2005-10-12 07:43:54 51°26.09 2°44.061 257.2 1.2 13 28.5
2005-10-12 07:44:00 51°26.092 2°44.061 257.2 1.2 12 28.4
2005-10-12 07:44:04 51°26.094 2°44.062 257 1.2 13 28.6
2005-10-12 07:44:10 51°26.096 2°44.062 256.7 1.2 14 28.4
2005-10-12 07:44:14 51°26.097 2°44.063 256.8 1.3 13 28.3
2005-10-12 07:44:20 51°26.099 2°44.064 256.7 1.2 14 28.6
2005-10-12 07:44:24 51°26.1 2°44.064 256.6 1.2 15 28.7
2005-10-12 07:44:29 51°26.102 2°44.065 256.5 1.2 16 28.6
2005-10-12 07:44:34 51°26.104 2°44.066 256.3 1.3 15 28.9
2005-10-12 07:44:40 51°26.106 2°44.067 256.3 1.2 16 28.8
2005-10-12 07:44:45 51°26.107 2°44.068 256.5 1.2 15 28.8
2005-10-12 07:44:49 51°26.109 2°44.068 256.8 1.3 17 28.9
2005-10-12 07:44:54 51°26.111 2°44.069 257.2 1.3 17 28.8
2005-10-12 07:45:00 51°26.112 2°44.07 257.6 1.3 18 28.9
2005-10-12 07:45:04 51°26.114 2°44.071 258.2 1.3 17 28.8
2005-10-12 07:45:10 51°26.116 2°44.072 258.4 1.4 18 28.8
2005-10-12 07:45:14 51°26.117 2°44.073 259 1.3 18 28.9
2005-10-12 07:45:20 51°26.12 2°44.074 259.2 1.4 15 29.2
2005-10-12 07:45:24 51°26.121 2°44.075 259.6 1.4 16 29
2005-10-12 07:45:30 51°26.123 2°44.075 260 1.4 17 28.9
2005-10-12 07:45:34 51°26.125 2°44.076 260.3 1.4 19 28.6
2005-10-12 07:45:39 51°26.126 2°44.077 260.6 1.4 18 28.9
2005-10-12 07:45:44 51°26.128 2°44.078 261 1.4 18 29.2
2005-10-12 07:45:50 51°26.13 2°44.079 261.2 1.4 19 28.9
2005-10-12 07:45:54 51°26.132 2°44.08 261.7 1.4 19 29.1
2005-10-12 07:46:00 51°26.134 2°44.082 262 1.3 21 29
2005-10-12 07:46:04 51°26.135 2°44.082 262.1 1.4 19 29.3
2005-10-12 07:46:10 51°26.137 2°44.084 262.6 1.3 18 29.1
2005-10-12 07:46:14 51°26.139 2°44.085 263.1 1.4 19 28.9
2005-10-12 07:46:20 51°26.141 2°44.085 263.4 1.4 21 29.2
2005-10-12 07:46:24 51°26.143 2°44.086 263.7 1.4 19 29.1
2005-10-12 07:46:29 51°26.144 2°44.088 264.1 1.3 21 29.2
2005-10-12 07:46:34 51°26.146 2°44.088 264.5 1.4 20 29
2005-10-12 07:46:40 51°26.148 2°44.09 264.9 1.5 19 29.1
2005-10-12 07:46:44 51°26.15 2°44.091 265.7 1.5 21 29
2005-10-12 07:46:49 51°26.152 2°44.092 266.1 1.4 20 28.6
2005-10-12 07:46:54 51°26.154 2°44.094 266.4 1.5 22 28.5
2005-10-12 07:47:00 51°26.156 2°44.095 267.2 1.5 21 28.4
2005-10-12 07:47:04 51°26.158 2°44.096 267.6 1.5 23 27.9
2005-10-12 07:47:09 51°26.16 2°44.097 268.1 1.5 21 27.3
2005-10-12 07:47:14 51°26.162 2°44.098 269.1 1.4 22 27.4
2005-10-12 07:47:19 51°26.163 2°44.099 269.4 1.5 20 26.6
2005-10-12 07:47:25 51°26.166 2°44.101 269.8 1.5 21 26
2005-10-12 07:47:29 51°26.167 2°44.102 270.1 1.5 20 26
2005-10-12 07:47:34 51°26.169 2°44.103 270.4 1.4 19 26.6
2005-10-12 07:47:40 51°26.172 2°44.104 270.7 1.5 18 27
2005-10-12 07:47:45 51°26.174 2°44.105 270.7 1.5 19 27.3
2005-10-12 07:47:50 51°26.175 2°44.106 270.7 1.5 16 27.7
2005-10-12 07:47:54 51°26.177 2°44.106 270.7 1.4 17 27.3
2005-10-12 07:48:00 51°26.179 2°44.107 270.6 1.4 17 27.3
2005-10-12 07:48:04 51°26.181 2°44.108 270.3 1.4 14 27.8
2005-10-12 07:48:09 51°26.183 2°44.109 269.9 1.4 14 27.8
2005-10-12 07:48:14 51°26.184 2°44.11 269.3 1.4 14 28
2005-10-12 07:48:20 51°26.187 2°44.111 269 1.4 14 28.2
2005-10-12 07:48:24 51°26.188 2°44.111 268.5 1.4 15 28.5
2005-10-12 07:48:30 51°26.19 2°44.112 268.1 1.3 12 28.2
2005-10-12 07:48:34 51°26.192 2°44.112 267.6 1.3 12 28.1
2005-10-12 07:48:39 51°26.193 2°44.113 266.7 1.3 11 28.3
2005-10-12 07:48:44 51°26.195 2°44.113 265.6 1.2 10 28.5
2005-10-12 07:48:49 51°26.197 2°44.114 264.6 1.2 7 28.8
2005-10-12 07:48:54 51°26.199 2°44.114 263.1 1.2 8 28.5
2005-10-12 07:49:00 51°26.2 2°44.114 261.8 1.2 4 28.6
2005-10-12 07:49:05 51°26.202 2°44.115 260.4 1.1 5 28.7
2005-10-12 07:49:09 51°26.203 2°44.115 259.1 1 4 28.6
2005-10-12 07:49:14 51°26.204 2°44.115 257.7 1 4 28.7
2005-10-12 07:49:20 51°26.206 2°44.115 256.3 1 4 28.7
2005-10-12 07:49:24 51°26.207 2°44.115 255.2 1 1 28.9
2005-10-12 07:49:30 51°26.209 2°44.115 254.3 1 1 29
2005-10-12 07:49:34 51°26.21 2°44.115 253.5 0.9 -999 28.7
2005-10-12 07:49:40 51°26.212 2°44.115 252.5 1.1 357 28.6
2005-10-12 07:49:44 51°26.213 2°44.115 251.8 0.9 358 28.8
2005-10-12 07:49:50 51°26.214 2°44.114 251.2 1 355 28.9
2005-10-12 07:49:54 51°26.215 2°44.115 250.4 1 357 28.7
2005-10-12 07:49:59 51°26.217 2°44.114 249.7 1 356 28.7
2005-10-12 07:50:05 51°26.218 2°44.114 248.9 0.9 356 28.7
2005-10-12 07:50:10 51°26.22 2°44.114 248.1 0.9 355 28.7